Time;durP1;ratioP1;P1;durP2;ratioP2;P2;SDS_P1;SDS_P2;PMS_P1;PMS_P2;Temp;Humidity;BMP_temperature;BMP_pressure;BME280_temperature;BME280_humidity;BME280_pressure;Samples;Min_cycle;Max_cycle;Signal;HPM_P1;HPM_P2
2022/05/06 00:00:14;;;;;;;18.90;15.23;;;14.40;99.90;;;;;;5094422;28;20204;-68
2022/05/06 00:02:42;;;;;;;17.00;13.98;;;14.50;99.90;;;;;;5093991;28;20203;-67
2022/05/06 00:05:11;;;;;;;20.13;14.52;;;14.50;99.90;;;;;;5093787;28;20505;-68
2022/05/06 00:07:38;;;;;;;17.75;14.00;;;14.60;99.90;;;;;;5093694;28;20208;-68
2022/05/06 00:10:06;;;;;;;21.08;15.60;;;14.60;99.90;;;;;;5093828;28;20624;-69
2022/05/06 00:12:33;;;;;;;19.67;14.95;;;14.80;99.90;;;;;;5093693;28;20211;-69
2022/05/06 00:15:00;;;;;;;20.92;15.30;;;14.70;99.90;;;;;;5093031;28;20228;-69
2022/05/06 00:17:27;;;;;;;18.25;14.98;;;14.60;99.90;;;;;;5093738;28;20226;-68
2022/05/06 00:19:56;;;;;;;22.17;15.38;;;14.50;99.90;;;;;;5093589;28;20924;-68
2022/05/06 00:22:22;;;;;;;17.92;15.15;;;14.40;99.90;;;;;;5093406;28;20214;-68
2022/05/06 00:24:51;;;;;;;18.67;14.90;;;14.50;99.90;;;;;;5093173;28;20286;-68
2022/05/06 00:27:18;;;;;;;19.13;15.63;;;14.50;99.90;;;;;;5093213;28;20235;-68
2022/05/06 00:29:45;;;;;;;19.75;15.15;;;14.50;99.90;;;;;;5093469;28;20742;-68
2022/05/06 00:32:12;;;;;;;21.88;14.85;;;14.50;99.90;;;;;;5093192;28;20754;-68
2022/05/06 00:34:38;;;;;;;21.55;16.17;;;14.40;99.90;;;;;;5093091;28;20218;-68
2022/05/06 00:37:07;;;;;;;20.27;15.32;;;14.40;99.90;;;;;;5092965;28;20231;-68
2022/05/06 00:39:33;;;;;;;21.92;16.98;;;14.30;99.90;;;;;;5093329;28;20214;-67
2022/05/06 00:42:00;;;;;;;22.52;16.60;;;14.40;99.90;;;;;;5093333;28;20206;-67
2022/05/06 00:44:27;;;;;;;21.77;15.93;;;14.40;99.90;;;;;;5093109;28;20666;-68
2022/05/06 00:46:57;;;;;;;21.08;16.73;;;14.50;99.90;;;;;;5093206;28;20223;-67
2022/05/06 00:49:25;;;;;;;21.30;16.17;;;14.50;99.90;;;;;;5093225;28;20200;-67
2022/05/06 00:51:52;;;;;;;21.02;16.35;;;14.40;99.90;;;;;;5093160;28;20212;-68
2022/05/06 00:54:23;;;;;;;21.30;15.70;;;14.40;99.90;;;;;;5092777;28;20283;-67
2022/05/06 00:56:51;;;;;;;22.48;16.20;;;14.50;99.90;;;;;;5093218;28;20271;-68
2022/05/06 00:59:18;;;;;;;21.88;17.60;;;14.40;99.90;;;;;;5092941;28;20204;-68
2022/05/06 01:01:45;;;;;;;28.63;18.15;;;14.30;99.90;;;;;;5092942;28;20595;-68
2022/05/06 01:04:14;;;;;;;26.60;17.50;;;14.20;99.90;;;;;;5092592;28;20208;-68
2022/05/06 01:06:40;;;;;;;22.05;16.35;;;14.20;99.90;;;;;;5092951;28;20220;-68
2022/05/06 01:09:07;;;;;;;25.20;17.10;;;14.30;99.90;;;;;;5092623;28;20679;-67
2022/05/06 01:11:35;;;;;;;21.15;16.38;;;14.30;99.90;;;;;;5092552;28;20234;-67
2022/05/06 01:14:02;;;;;;;24.17;17.75;;;14.20;99.90;;;;;;5092463;28;20699;-68
2022/05/06 01:16:33;;;;;;;24.75;17.42;;;14.20;99.90;;;;;;5092215;28;20255;-69
2022/05/06 01:19:00;;;;;;;23.58;17.05;;;14.30;99.90;;;;;;5092574;28;20208;-68
2022/05/06 01:21:28;;;;;;;21.85;16.50;;;14.30;99.90;;;;;;5092475;28;20210;-68
2022/05/06 01:23:56;;;;;;;21.90;16.05;;;14.40;99.90;;;;;;5092120;28;20203;-68
2022/05/06 01:26:23;;;;;;;24.67;16.70;;;14.50;99.90;;;;;;5092322;28;20576;-69
2022/05/06 01:28:54;;;;;;;21.20;16.95;;;14.40;99.90;;;;;;5092733;28;20685;-68
2022/05/06 01:31:23;;;;;;;22.05;15.98;;;14.50;99.90;;;;;;5092432;28;20238;-67
2022/05/06 01:33:54;;;;;;;22.35;17.90;;;14.50;99.90;;;;;;5092225;28;20205;-67
2022/05/06 01:36:25;;;;;;;22.27;16.33;;;14.50;99.90;;;;;;5091909;28;20239;-67
2022/05/06 01:38:56;;;;;;;24.65;17.30;;;14.60;99.90;;;;;;5092654;28;20614;-68
2022/05/06 01:41:27;;;;;;;25.35;17.40;;;14.50;99.90;;;;;;5091968;28;20207;-67
2022/05/06 01:44:01;;;;;;;24.42;17.55;;;14.50;99.90;;;;;;5092327;28;20291;-67
2022/05/06 01:46:29;;;;;;;19.83;16.15;;;14.40;99.90;;;;;;5092417;28;20219;-68
2022/05/06 01:48:58;;;;;;;24.15;18.27;;;14.40;99.90;;;;;;5092498;28;20719;-68
2022/05/06 01:51:27;;;;;;;24.33;17.10;;;14.30;99.90;;;;;;5092514;28;20207;-66
2022/05/06 01:53:54;;;;;;;23.73;16.35;;;14.40;99.90;;;;;;5092704;28;20204;-67
2022/05/06 01:56:21;;;;;;;22.13;15.85;;;14.40;99.90;;;;;;5092237;28;20233;-67
2022/05/06 01:58:51;;;;;;;24.63;16.92;;;14.40;99.90;;;;;;5092305;28;20213;-69
2022/05/06 02:01:18;;;;;;;22.42;16.23;;;14.40;99.90;;;;;;5092017;28;20662;-68
2022/05/06 02:06:29;;;;;;;22.83;15.95;;;14.40;99.90;;;;;;5093725;28;20276;-67
2022/05/06 02:08:56;;;;;;;20.23;15.45;;;14.40;99.90;;;;;;5095261;28;20202;-68
2022/05/06 02:11:23;;;;;;;22.80;17.67;;;14.40;99.90;;;;;;5093398;28;20211;-67
2022/05/06 02:13:51;;;;;;;20.75;15.98;;;14.40;99.90;;;;;;5093223;28;20204;-68
2022/05/06 02:16:19;;;;;;;26.27;16.75;;;14.40;99.90;;;;;;5093068;28;20233;-68
2022/05/06 02:18:46;;;;;;;20.42;15.25;;;14.30;99.90;;;;;;5093400;28;20266;-69
2022/05/06 02:21:12;;;;;;;21.75;15.07;;;14.30;99.90;;;;;;5093212;28;20703;-69
2022/05/06 02:23:39;;;;;;;21.05;15.18;;;14.40;99.90;;;;;;5093069;28;20290;-69
2022/05/06 02:26:06;;;;;;;23.40;16.58;;;14.30;99.90;;;;;;5093170;28;20231;-69
2022/05/06 02:28:33;;;;;;;20.02;16.05;;;14.30;99.90;;;;;;5093321;28;20290;-69
2022/05/06 02:33:45;;;;;;;20.67;16.08;;;14.30;99.90;;;;;;5093085;28;20257;-69
2022/05/06 02:36:12;;;;;;;19.90;15.30;;;14.30;99.90;;;;;;5092842;28;20723;-69
2022/05/06 02:38:39;;;;;;;22.23;15.52;;;14.30;99.90;;;;;;5093228;28;20655;-69
2022/05/06 02:41:06;;;;;;;20.42;15.20;;;14.30;99.90;;;;;;5092887;28;20576;-69
2022/05/06 02:43:33;;;;;;;22.60;15.27;;;14.20;99.90;;;;;;5092768;28;20203;-69
2022/05/06 02:46:01;;;;;;;19.55;14.80;;;14.20;99.90;;;;;;5092958;28;20580;-69
2022/05/06 02:48:28;;;;;;;16.30;14.23;;;14.10;99.90;;;;;;5093175;28;20198;-69
2022/05/06 02:50:55;;;;;;;20.13;15.55;;;14.10;99.90;;;;;;5092999;28;20295;-69
2022/05/06 02:53:22;;;;;;;20.65;14.75;;;14.00;99.90;;;;;;5094145;28;20235;-69
2022/05/06 02:55:49;;;;;;;19.15;14.40;;;14.10;99.90;;;;;;5096560;28;20234;-69
2022/05/06 02:58:16;;;;;;;19.45;14.98;;;14.10;99.90;;;;;;5096639;28;20591;-69
2022/05/06 03:00:43;;;;;;;18.13;14.07;;;14.20;99.90;;;;;;5096397;28;20785;-69
2022/05/06 03:03:11;;;;;;;17.23;13.93;;;14.20;99.90;;;;;;5096365;28;20207;-68
2022/05/06 03:05:38;;;;;;;21.10;14.32;;;14.20;99.90;;;;;;5096394;28;20281;-69
2022/05/06 03:08:05;;;;;;;20.00;14.30;;;14.10;99.90;;;;;;5096689;28;20565;-70
2022/05/06 03:10:32;;;;;;;22.05;16.05;;;14.20;99.90;;;;;;5096971;28;20208;-69
2022/05/06 03:12:59;;;;;;;23.50;15.70;;;14.10;99.90;;;;;;5096332;28;20203;-69
2022/05/06 03:15:26;;;;;;;21.50;14.93;;;14.00;99.90;;;;;;5095783;28;20234;-69
2022/05/06 03:17:53;;;;;;;20.85;14.63;;;14.00;99.90;;;;;;5096269;28;20210;-69
2022/05/06 03:20:22;;;;;;;16.30;14.05;;;14.10;99.90;;;;;;5095934;28;20222;-69
2022/05/06 03:22:50;;;;;;;20.20;14.57;;;14.20;99.90;;;;;;5096057;28;20207;-69
2022/05/06 03:25:17;;;;;;;20.60;15.38;;;14.20;99.90;;;;;;5095859;28;20557;-69
2022/05/06 03:28:07;;;;;;;19.95;14.57;;;14.00;99.90;;;;;;5095750;28;20202;-69
2022/05/06 03:30:39;;;;;;;19.30;15.35;;;14.00;99.90;;;;;;5095951;28;20207;-69
2022/05/06 03:33:08;;;;;;;19.20;14.85;;;13.90;99.90;;;;;;5095769;28;20571;-69
2022/05/06 03:35:36;;;;;;;19.83;15.23;;;13.80;99.90;;;;;;5095782;28;20262;-69
2022/05/06 03:38:05;;;;;;;21.13;16.02;;;13.90;99.90;;;;;;5095938;28;20285;-69
2022/05/06 03:40:32;;;;;;;18.30;14.77;;;13.80;99.90;;;;;;5095831;28;20265;-69
2022/05/06 03:42:58;;;;;;;19.88;15.55;;;13.80;99.90;;;;;;5095732;28;20207;-69
2022/05/06 03:45:25;;;;;;;20.02;14.65;;;13.80;99.90;;;;;;5095476;28;20204;-69
2022/05/06 03:47:54;;;;;;;20.65;16.15;;;13.90;99.90;;;;;;5095739;28;20297;-69
2022/05/06 03:53:02;;;;;;;17.67;13.15;;;13.90;99.90;;;;;;5764499;22;20335;-70
2022/05/06 03:55:29;;;;;;;19.60;14.45;;;13.90;99.90;;;;;;5054874;28;20316;-69
2022/05/06 03:57:56;;;;;;;16.83;12.98;;;13.80;99.90;;;;;;5055181;28;20242;-70
2022/05/06 04:00:23;;;;;;;18.33;14.05;;;13.80;99.90;;;;;;5055261;28;20286;-69
2022/05/06 04:02:50;;;;;;;18.80;14.48;;;13.80;99.90;;;;;;5054647;28;20247;-69
2022/05/06 04:05:17;;;;;;;16.27;13.45;;;13.90;99.90;;;;;;5054427;28;20204;-70
2022/05/06 04:07:44;;;;;;;17.02;13.18;;;13.90;99.90;;;;;;5055081;28;20290;-69
2022/05/06 04:10:12;;;;;;;19.73;14.65;;;14.00;99.90;;;;;;5054998;28;20200;-69
2022/05/06 04:12:39;;;;;;;31.30;19.88;;;14.00;99.90;;;;;;5054522;28;20205;-69
2022/05/06 04:15:06;;;;;;;18.42;13.82;;;14.00;99.90;;;;;;5054819;28;20250;-69
2022/05/06 04:17:33;;;;;;;15.55;13.57;;;14.10;99.90;;;;;;5054802;28;20235;-69
2022/05/06 04:25:30;;;;;;;19.58;13.48;;;14.00;99.90;;;;;;5054611;28;20191;-69
2022/05/06 04:27:57;;;;;;;21.15;13.40;;;14.00;99.90;;;;;;5054694;28;20204;-69
2022/05/06 04:30:24;;;;;;;16.80;14.20;;;14.00;99.90;;;;;;5054640;28;20211;-69
2022/05/06 04:32:51;;;;;;;16.38;12.85;;;14.00;99.90;;;;;;5054002;28;20204;-69
2022/05/06 04:35:18;;;;;;;18.58;13.98;;;14.00;99.90;;;;;;5054189;28;20294;-69
2022/05/06 04:37:46;;;;;;;19.00;14.63;;;14.00;99.90;;;;;;5054437;28;20665;-69
2022/05/06 04:40:13;;;;;;;20.00;14.38;;;14.00;99.90;;;;;;5054387;28;20206;-69
2022/05/06 04:42:41;;;;;;;20.05;15.27;;;13.90;99.90;;;;;;5053836;28;20740;-69
2022/05/06 04:45:08;;;;;;;19.85;14.52;;;13.70;99.90;;;;;;5054391;28;20207;-69
2022/05/06 04:47:37;;;;;;;19.65;14.05;;;13.60;99.90;;;;;;5054356;28;20204;-69
2022/05/06 04:50:05;;;;;;;18.20;14.13;;;13.60;99.90;;;;;;5054399;28;20292;-69
2022/05/06 04:52:32;;;;;;;21.73;15.10;;;13.50;99.90;;;;;;5053698;28;20572;-69
2022/05/06 04:54:58;;;;;;;17.63;14.63;;;13.60;99.90;;;;;;5053855;28;20238;-69
2022/05/06 04:57:25;;;;;;;17.98;13.68;;;13.60;99.90;;;;;;5054120;28;20562;-69
2022/05/06 04:59:53;;;;;;;18.13;14.00;;;13.70;99.90;;;;;;5054066;28;20201;-69
2022/05/06 05:02:20;;;;;;;19.25;14.40;;;13.70;99.90;;;;;;5053662;28;20310;-69
2022/05/06 05:04:52;;;;;;;17.02;13.75;;;13.60;99.90;;;;;;5054168;28;20231;-69
2022/05/06 05:07:19;;;;;;;19.02;14.20;;;13.50;99.90;;;;;;5053900;28;20258;-69
2022/05/06 05:09:46;;;;;;;19.02;14.05;;;13.50;99.90;;;;;;5054022;28;20236;-69
2022/05/06 05:12:12;;;;;;;16.50;13.27;;;13.50;99.90;;;;;;5053552;28;20204;-68
2022/05/06 05:14:41;;;;;;;17.00;13.48;;;13.50;99.90;;;;;;5054065;28;20227;-69
2022/05/06 05:17:09;;;;;;;17.02;14.07;;;13.40;99.90;;;;;;5053558;28;20239;-69
2022/05/06 05:19:36;;;;;;;16.42;13.55;;;13.40;99.90;;;;;;5053873;28;20203;-69
2022/05/06 05:22:04;;;;;;;16.00;13.77;;;13.50;99.90;;;;;;5053469;28;20627;-69
2022/05/06 05:24:31;;;;;;;17.58;13.77;;;13.40;99.90;;;;;;5053751;28;20224;-69
2022/05/06 05:26:58;;;;;;;16.45;13.23;;;13.40;99.90;;;;;;5053667;28;20566;-69
2022/05/06 05:29:25;;;;;;;18.38;14.15;;;13.50;99.90;;;;;;5053702;28;20573;-69
2022/05/06 05:31:52;;;;;;;16.80;13.80;;;13.60;99.90;;;;;;5053621;28;20204;-69
2022/05/06 05:34:20;;;;;;;16.85;13.88;;;13.60;99.90;;;;;;5052797;28;20243;-69
2022/05/06 05:36:47;;;;;;;20.77;14.93;;;13.60;99.90;;;;;;5053263;28;20694;-69
2022/05/06 05:39:14;;;;;;;18.70;13.77;;;13.50;99.90;;;;;;5053429;28;20211;-69
2022/05/06 05:41:41;;;;;;;18.17;14.05;;;13.50;99.90;;;;;;5053511;28;20199;-69
2022/05/06 05:49:46;;;;;;;18.60;13.80;;;13.40;99.90;;;;;;5053412;28;20202;-69
2022/05/06 05:52:13;;;;;;;20.27;14.20;;;13.20;99.90;;;;;;5053126;28;20204;-68
2022/05/06 05:54:40;;;;;;;16.92;14.07;;;13.20;99.90;;;;;;5053143;28;20775;-69
2022/05/06 05:57:08;;;;;;;19.95;13.05;;;13.30;99.90;;;;;;5053316;28;20265;-69
2022/05/06 05:59:34;;;;;;;18.40;14.02;;;13.20;99.90;;;;;;5053301;28;20203;-69
2022/05/06 06:02:02;;;;;;;20.85;15.50;;;13.20;99.90;;;;;;5053109;28;20743;-69
2022/05/06 06:04:29;;;;;;;17.65;13.73;;;13.20;99.90;;;;;;5052924;28;20296;-69
2022/05/06 06:06:57;;;;;;;20.98;14.63;;;13.30;99.90;;;;;;5053268;28;20598;-69
2022/05/06 06:09:24;;;;;;;19.52;13.73;;;13.30;99.90;;;;;;5053247;28;20199;-69
2022/05/06 06:11:51;;;;;;;18.15;13.60;;;13.40;99.90;;;;;;5053200;28;20204;-69
2022/05/06 06:14:18;;;;;;;19.67;15.23;;;13.30;99.90;;;;;;5052887;28;20227;-69
2022/05/06 06:16:45;;;;;;;16.42;12.77;;;13.40;99.90;;;;;;5053128;28;20239;-69
2022/05/06 06:19:12;;;;;;;15.75;13.93;;;13.40;99.90;;;;;;5053139;28;20203;-69
2022/05/06 06:21:39;;;;;;;18.02;13.90;;;13.40;99.90;;;;;;5053096;28;20281;-69
2022/05/06 06:24:07;;;;;;;16.58;13.60;;;13.40;99.90;;;;;;5052498;28;20314;-69
2022/05/06 06:26:34;;;;;;;16.35;13.50;;;13.50;99.90;;;;;;5053156;28;20291;-69
2022/05/06 06:29:02;;;;;;;17.67;14.35;;;13.50;99.90;;;;;;5056946;28;20207;-69
2022/05/06 06:31:31;;;;;;;15.73;12.95;;;13.60;99.90;;;;;;5056695;28;20207;-69
2022/05/06 06:33:58;;;;;;;16.25;13.73;;;13.70;99.90;;;;;;5056203;28;20574;-69
2022/05/06 06:36:25;;;;;;;17.65;13.98;;;13.70;99.90;;;;;;5056440;28;20760;-69
2022/05/06 06:38:52;;;;;;;17.13;12.73;;;13.80;99.90;;;;;;5056699;28;20203;-69
2022/05/06 06:41:20;;;;;;;16.73;13.05;;;13.70;99.90;;;;;;5056449;28;20272;-69
2022/05/06 06:43:47;;;;;;;16.15;13.20;;;13.80;99.90;;;;;;5056296;28;20229;-69
2022/05/06 06:46:14;;;;;;;19.13;13.73;;;13.80;99.90;;;;;;5056507;28;20201;-69
2022/05/06 06:48:41;;;;;;;16.25;12.98;;;13.70;99.90;;;;;;5056538;28;20295;-69
2022/05/06 06:51:08;;;;;;;16.90;14.30;;;13.70;99.90;;;;;;5056499;28;20226;-69
2022/05/06 06:53:35;;;;;;;16.33;11.85;;;13.50;99.90;;;;;;5055717;28;20220;-70
2022/05/06 06:56:02;;;;;;;14.40;11.50;;;13.50;99.90;;;;;;5056387;28;20542;-69
2022/05/06 06:58:30;;;;;;;17.75;13.30;;;13.60;99.90;;;;;;5056397;28;20213;-69
2022/05/06 07:00:58;;;;;;;17.10;12.73;;;13.60;99.90;;;;;;5056235;28;20216;-69
2022/05/06 07:03:25;;;;;;;16.77;12.48;;;13.40;99.90;;;;;;5055745;28;20230;-69
2022/05/06 07:14:05;;;;;;;15.07;12.45;;;13.80;99.90;;;;;;5055743;28;20262;-69
2022/05/06 07:16:32;;;;;;;15.55;12.48;;;13.90;99.90;;;;;;5055769;28;20227;-69
2022/05/06 07:18:59;;;;;;;12.70;11.40;;;13.90;99.90;;;;;;5056054;28;20210;-69
2022/05/06 07:21:26;;;;;;;14.88;12.07;;;13.60;99.90;;;;;;5056030;28;20295;-69
2022/05/06 07:23:52;;;;;;;15.40;11.93;;;13.40;99.90;;;;;;5055508;28;20265;-69
2022/05/06 07:26:19;;;;;;;15.05;11.52;;;13.20;99.90;;;;;;5055996;28;20560;-69
2022/05/06 07:28:46;;;;;;;14.52;11.52;;;13.30;99.90;;;;;;5055864;28;20294;-69
2022/05/06 07:31:14;;;;;;;14.20;11.32;;;13.30;99.90;;;;;;5055797;28;20211;-69
2022/05/06 07:33:41;;;;;;;15.90;11.10;;;13.30;99.90;;;;;;5055331;28;20317;-69
2022/05/06 07:36:08;;;;;;;12.77;10.93;;;13.30;99.90;;;;;;5055722;28;20310;-69
2022/05/06 07:38:35;;;;;;;12.20;10.25;;;13.40;99.90;;;;;;5054793;28;20271;-69
2022/05/06 07:41:03;;;;;;;12.60;11.30;;;13.40;99.90;;;;;;5055620;28;20205;-69
2022/05/06 07:43:30;;;;;;;12.15;10.82;;;13.40;99.90;;;;;;5054980;28;20289;-69
2022/05/06 07:45:57;;;;;;;12.52;10.95;;;13.40;99.90;;;;;;5055369;28;20209;-69
2022/05/06 07:48:26;;;;;;;13.20;10.50;;;13.30;99.90;;;;;;5055545;28;20297;-69
2022/05/06 07:50:52;;;;;;;13.43;10.65;;;13.30;99.90;;;;;;5055307;28;20207;-69
2022/05/06 07:53:19;;;;;;;11.32;9.85;;;13.30;99.90;;;;;;5054774;28;20250;-69
2022/05/06 07:55:46;;;;;;;12.65;10.23;;;13.40;99.90;;;;;;5054985;28;20212;-69
2022/05/06 07:58:13;;;;;;;12.02;9.70;;;13.40;99.90;;;;;;5055174;28;20231;-69
2022/05/06 08:00:40;;;;;;;12.38;10.32;;;13.30;99.90;;;;;;5055052;28;20674;-69
2022/05/06 08:05:56;;;;;;;11.32;9.70;;;13.50;99.90;;;;;;5055187;28;20187;-68
2022/05/06 08:08:25;;;;;;;11.75;10.07;;;13.60;99.90;;;;;;5055134;28;20200;-69
2022/05/06 08:10:52;;;;;;;11.50;9.77;;;13.70;99.90;;;;;;5055034;28;20625;-69
2022/05/06 08:13:19;;;;;;;10.70;9.60;;;14.00;99.90;;;;;;5054462;28;20230;-69
2022/05/06 08:15:46;;;;;;;10.90;9.45;;;14.00;99.90;;;;;;5054979;28;20208;-69
2022/05/06 08:18:14;;;;;;;12.20;9.90;;;14.20;99.90;;;;;;5054810;28;20222;-69
2022/05/06 08:20:41;;;;;;;11.82;9.60;;;14.30;99.90;;;;;;5054832;28;20667;-69
2022/05/06 08:23:10;;;;;;;15.77;10.38;;;14.30;99.90;;;;;;5054207;28;20231;-69
2022/05/06 08:25:37;;;;;;;11.90;9.95;;;14.20;99.90;;;;;;5054810;28;20227;-69
2022/05/06 08:28:04;;;;;;;11.45;10.25;;;14.30;99.90;;;;;;5054688;28;20205;-69
2022/05/06 08:30:31;;;;;;;14.23;9.93;;;14.30;99.90;;;;;;5054764;28;20629;-68
2022/05/06 08:32:57;;;;;;;11.75;10.40;;;14.30;99.90;;;;;;5054067;28;20204;-69
2022/05/06 08:35:24;;;;;;;11.75;9.50;;;14.20;99.90;;;;;;5054644;28;20300;-68
2022/05/06 08:37:51;;;;;;;10.95;9.85;;;14.30;99.90;;;;;;5054399;28;20263;-69
2022/05/06 08:40:21;;;;;;;11.57;9.73;;;14.40;99.90;;;;;;5054427;28;20312;-69
2022/05/06 08:42:48;;;;;;;12.48;9.15;;;14.50;99.90;;;;;;5053653;28;20694;-69
2022/05/06 08:50:53;;;;;;;12.32;9.23;;;14.50;99.90;;;;;;5054255;28;20215;-69
2022/05/06 08:53:21;;;;;;;10.50;9.05;;;14.30;99.90;;;;;;5053668;28;20278;-68
2022/05/06 08:55:51;;;;;;;11.73;9.73;;;14.20;99.90;;;;;;5054387;28;20226;-68
2022/05/06 08:58:20;;;;;;;12.73;9.25;;;14.30;99.90;;;;;;5054088;28;20575;-68
2022/05/06 09:00:47;;;;;;;12.45;9.30;;;14.40;99.90;;;;;;5053790;28;20264;-69
2022/05/06 09:03:15;;;;;;;10.25;8.68;;;14.50;99.90;;;;;;5053423;28;20232;-69
2022/05/06 09:05:53;;;;;;;9.63;8.35;;;14.60;99.90;;;;;;5054018;28;20205;-68
2022/05/06 09:08:21;;;;;;;10.63;9.00;;;14.70;99.90;;;;;;5053877;28;20246;-69
2022/05/06 09:11:03;;;;;;;11.27;9.10;;;14.70;99.90;;;;;;5053908;28;20244;-68
2022/05/06 09:13:31;;;;;;;14.40;11.07;;;14.70;99.90;;;;;;5053480;28;20229;-69
2022/05/06 09:19:17;;;;;;;14.10;12.30;;;14.80;99.90;;;;;;5053826;28;20267;-68
2022/05/06 09:22:02;;;;;;;10.15;9.15;;;14.90;99.90;;;;;;5053614;28;20224;-70
2022/05/06 09:24:30;;;;;;;9.95;8.20;;;15.00;99.90;;;;;;5053341;28;20258;-70
2022/05/06 09:27:00;;;;;;;9.60;8.55;;;15.00;99.90;;;;;;5053673;28;20244;-70
2022/05/06 09:29:28;;;;;;;10.38;9.25;;;15.20;99.90;;;;;;5044476;28;20216;-69
2022/05/06 09:31:56;;;;;;;9.90;8.90;;;15.30;99.90;;;;;;5052272;28;20209;-69
2022/05/06 09:34:28;;;;;;;11.45;9.10;;;15.40;99.90;;;;;;5051946;28;20602;-70
2022/05/06 09:36:55;;;;;;;10.13;9.07;;;15.50;99.90;;;;;;5052219;28;20229;-69
2022/05/06 09:39:22;;;;;;;8.10;7.28;;;15.40;99.90;;;;;;5052167;28;20206;-69
2022/05/06 09:42:01;;;;;;;9.98;7.47;;;15.50;99.90;;;;;;5052012;28;20205;-70
2022/05/06 09:44:29;;;;;;;10.45;8.90;;;15.50;99.90;;;;;;5051716;28;20226;-70
2022/05/06 09:47:09;;;;;;;13.60;9.35;;;15.40;99.90;;;;;;5052311;28;20200;-69
2022/05/06 09:49:40;;;;;;;10.30;8.25;;;15.50;99.90;;;;;;5052090;28;20201;-70
2022/05/06 09:52:12;;;;;;;9.30;7.97;;;15.50;99.90;;;;;;5051809;28;20218;-69
2022/05/06 09:54:42;;;;;;;10.07;9.05;;;15.60;99.90;;;;;;5051680;28;20507;-69
2022/05/06 09:57:11;;;;;;;14.10;9.10;;;15.80;99.90;;;;;;5051950;28;20206;-69
2022/05/06 09:59:39;;;;;;;9.98;8.55;;;15.80;99.90;;;;;;5052200;28;20202;-69
2022/05/06 10:02:07;;;;;;;9.75;8.30;;;15.90;99.90;;;;;;5052673;28;20213;-68
2022/05/06 10:04:35;;;;;;;8.88;7.90;;;16.00;99.90;;;;;;5055871;28;20222;-69
2022/05/06 10:07:03;;;;;;;8.25;7.45;;;16.10;99.90;;;;;;5055960;28;20207;-69
2022/05/06 10:09:33;;;;;;;9.65;8.70;;;16.10;99.90;;;;;;5056017;28;20567;-70
2022/05/06 10:12:03;;;;;;;10.40;8.27;;;16.00;99.90;;;;;;5055821;28;20245;-69
2022/05/06 10:14:31;;;;;;;9.90;7.80;;;16.10;99.90;;;;;;5055798;28;20257;-70
2022/05/06 10:16:59;;;;;;;9.48;8.05;;;16.20;99.90;;;;;;5055635;28;20676;-70
2022/05/06 10:19:27;;;;;;;9.50;8.45;;;16.30;99.90;;;;;;5055615;28;20631;-69
2022/05/06 10:21:55;;;;;;;11.90;8.45;;;16.60;99.90;;;;;;5055665;28;20200;-69
2022/05/06 10:24:22;;;;;;;11.05;9.07;;;16.80;99.90;;;;;;5056004;28;20227;-70
2022/05/06 10:26:50;;;;;;;9.35;8.45;;;17.30;99.90;;;;;;5055938;28;20211;-69
2022/05/06 10:32:58;;;;;;;8.60;7.75;;;18.10;99.90;;;;;;5055516;28;20204;-68
2022/05/06 10:35:42;;;;;;;7.80;7.00;;;18.90;99.90;;;;;;5056028;28;20670;-69
2022/05/06 10:38:23;;;;;;;8.80;8.00;;;19.90;99.90;;;;;;5055402;28;20481;-68
2022/05/06 10:40:57;;;;;;;8.60;7.70;;;20.00;98.50;;;;;;5055647;28;20436;-68
2022/05/06 10:43:54;;;;;;;8.07;7.37;;;20.00;97.20;;;;;;5055428;28;20969;-68
2022/05/06 10:46:40;;;;;;;8.70;7.80;;;20.10;96.90;;;;;;5055729;28;20445;-69
2022/05/06 10:49:52;;;;;;;9.17;8.37;;;20.50;96.60;;;;;;5055670;28;20440;-69
2022/05/06 10:52:45;;;;;;;10.33;8.10;;;20.40;96.20;;;;;;5055316;28;20818;-69
2022/05/06 10:55:17;;;;;;;7.90;7.20;;;20.10;95.40;;;;;;5055372;28;20465;-68
2022/05/06 10:58:02;;;;;;;8.20;7.40;;;20.00;96.80;;;;;;5055871;28;20905;-69
2022/05/06 11:00:31;;;;;;;9.00;7.93;;;20.10;98.50;;;;;;5056348;28;20444;-68
2022/05/06 11:02:59;;;;;;;9.73;8.50;;;20.10;96.90;;;;;;5056001;28;20448;-68
2022/05/06 11:05:29;;;;;;;8.13;7.33;;;19.90;96.80;;;;;;5056315;28;20544;-68
2022/05/06 11:07:59;;;;;;;7.67;6.97;;;20.00;98.00;;;;;;5056171;28;20448;-68
2022/05/06 11:10:29;;;;;;;8.47;7.57;;;20.10;97.90;;;;;;5056663;28;20459;-68
2022/05/06 11:12:58;;;;;;;8.17;7.37;;;20.20;96.40;;;;;;5055397;28;20547;-68
2022/05/06 11:15:27;;;;;;;7.40;6.70;;;20.20;96.70;;;;;;5055115;28;20481;-68
2022/05/06 11:17:57;;;;;;;8.07;6.63;;;20.30;95.70;;;;;;5055987;28;20861;-68
2022/05/06 11:20:27;;;;;;;7.43;6.80;;;19.80;93.80;;;;;;5056043;28;20446;-68
2022/05/06 11:22:58;;;;;;;8.33;6.90;;;19.60;95.90;;;;;;5055759;28;20832;-68
2022/05/06 11:25:26;;;;;;;7.77;7.03;;;19.70;95.30;;;;;;5056036;28;20437;-68
2022/05/06 11:27:55;;;;;;;7.47;6.40;;;19.60;94.00;;;;;;5055740;28;20446;-68
2022/05/06 11:30:24;;;;;;;6.60;6.00;;;19.50;94.60;;;;;;5055805;28;20443;-68
2022/05/06 11:32:53;;;;;;;6.20;5.70;;;19.40;93.10;;;;;;5055254;28;20449;-68
2022/05/06 11:35:24;;;;;;;6.93;6.20;;;19.30;93.40;;;;;;5055802;28;20445;-68
2022/05/06 11:37:51;;;;;;;5.90;5.20;;;19.30;92.80;;;;;;5055647;28;20522;-68
2022/05/06 11:40:37;;;;;;;6.83;6.23;;;19.20;94.60;;;;;;5055548;28;20542;-68
2022/05/06 11:43:06;;;;;;;7.97;6.10;;;19.30;94.10;;;;;;5055242;28;20884;-68
2022/05/06 11:48:21;;;;;;;6.50;5.87;;;19.50;92.50;;;;;;5055490;28;20415;-68
2022/05/06 11:50:56;;;;;;;6.27;5.67;;;19.60;93.10;;;;;;5055388;28;20440;-68
2022/05/06 11:53:27;;;;;;;7.17;6.10;;;19.50;92.30;;;;;;5055088;28;20474;-68
2022/05/06 11:55:56;;;;;;;7.40;6.40;;;19.40;92.70;;;;;;5055379;28;20447;-68
2022/05/06 11:58:25;;;;;;;6.60;6.00;;;19.40;93.20;;;;;;5055156;28;20994;-68
2022/05/06 12:00:54;;;;;;;8.07;6.60;;;19.20;92.30;;;;;;5055233;28;20447;-68
2022/05/06 12:03:21;;;;;;;7.80;7.00;;;19.20;93.50;;;;;;5054829;28;20470;-68
2022/05/06 12:06:06;;;;;;;7.37;6.67;;;19.20;93.10;;;;;;5054945;28;20808;-68
2022/05/06 12:08:35;;;;;;;7.07;6.37;;;19.10;92.30;;;;;;5054617;28;20457;-68
2022/05/06 12:11:05;;;;;;;7.10;6.40;;;19.10;92.40;;;;;;5055048;28;20445;-68
2022/05/06 12:13:34;;;;;;;6.43;5.83;;;19.10;91.90;;;;;;5054667;28;20466;-69
2022/05/06 12:16:10;;;;;;;7.83;5.90;;;19.20;92.50;;;;;;5055169;28;20482;-68
2022/05/06 12:18:38;;;;;;;6.97;6.27;;;19.20;92.10;;;;;;5054742;28;20480;-68
2022/05/06 12:21:18;;;;;;;7.27;6.57;;;19.10;92.40;;;;;;5054807;28;20446;-68
2022/05/06 12:23:52;;;;;;;7.00;6.40;;;19.00;91.50;;;;;;5054299;28;20474;-68
2022/05/06 12:26:29;;;;;;;6.93;6.23;;;19.10;91.40;;;;;;5054743;28;20440;-68
2022/05/06 12:28:55;;;;;;;7.45;6.75;;;18.90;91.70;;;;;;5054608;28;20478;-68
2022/05/06 12:31:27;;;;;;;7.20;6.50;;;18.90;91.70;;;;;;5054655;28;20211;-68
2022/05/06 12:34:01;;;;;;;7.93;6.67;;;18.80;91.60;;;;;;5054382;28;20472;-68
2022/05/06 12:36:28;;;;;;;6.97;6.27;;;18.80;91.70;;;;;;5054619;28;20792;-68
2022/05/06 12:38:55;;;;;;;6.67;5.97;;;18.70;91.80;;;;;;5054283;28;20474;-68
2022/05/06 12:41:23;;;;;;;7.00;6.30;;;18.70;91.40;;;;;;5054329;28;20447;-68
2022/05/06 12:43:52;;;;;;;6.67;6.10;;;18.80;91.40;;;;;;5054331;28;20477;-68
2022/05/06 12:46:26;;;;;;;6.90;6.30;;;18.80;91.90;;;;;;5054388;28;20447;-68
2022/05/06 12:51:41;;;;;;;6.88;6.28;;;18.90;91.10;;;;;;5036693;28;20426;-69
2022/05/06 12:54:09;;;;;;;8.23;7.47;;;18.90;91.40;;;;;;5053655;28;20254;-68
2022/05/06 12:56:36;;;;;;;7.70;7.00;;;19.00;91.20;;;;;;5054037;28;20482;-68
2022/05/06 12:59:05;;;;;;;7.13;6.53;;;19.00;91.20;;;;;;5053800;28;20478;-68
2022/05/06 13:01:32;;;;;;;6.73;6.13;;;19.10;91.70;;;;;;5054091;28;20446;-68
2022/05/06 13:03:59;;;;;;;7.60;6.67;;;19.20;91.20;;;;;;5053803;28;20468;-68
2022/05/06 13:06:25;;;;;;;8.07;7.20;;;19.20;91.00;;;;;;5053977;28;20458;-69
2022/05/06 13:08:53;;;;;;;7.70;6.90;;;19.20;91.00;;;;;;5053941;28;20446;-68
2022/05/06 13:11:20;;;;;;;7.57;6.87;;;19.20;90.60;;;;;;5053927;28;20449;-68
2022/05/06 13:13:46;;;;;;;6.97;6.37;;;19.20;91.00;;;;;;5053464;28;20502;-68
2022/05/06 13:16:14;;;;;;;7.30;6.60;;;19.40;91.40;;;;;;5054179;28;20481;-69
2022/05/06 13:18:42;;;;;;;6.43;5.83;;;19.40;91.10;;;;;;5053780;28;20485;-68
2022/05/06 13:21:09;;;;;;;6.47;5.90;;;19.40;91.10;;;;;;5053748;28;20548;-68
2022/05/06 13:23:37;;;;;;;6.53;5.95;;;19.30;90.80;;;;;;5053587;28;20470;-68
2022/05/06 13:26:04;;;;;;;7.10;6.40;;;19.10;92.00;;;;;;5053521;28;20711;-68
2022/05/06 13:28:31;;;;;;;6.50;5.82;;;18.90;92.80;;;;;;5053551;28;20529;-68